CheckWX is a tool to help pilots better visualize weather data.  It is not intended as a substitute for an official pre-flight weather briefing.

22:44:16 UTC

LTAJ METAR
Gaziantep International Airport
Gaziantep, Turkey
Current

24 mins ago

LTAJ 282220Z 00000KT 9999 -RA SCT016 BKN025 OVC070 06/04 Q1016 R28/2///78 NOSIG
Observed
Jan-28 @ 22:20 UTC
Visibility
10,000+ meters
Flight Rules
MVFR
Conditions
Light Rain
Cloud Levels
  • Scattered at 1,600' AGL
  • Broken at 2,500' AGL
  • Overcast at 7,000' AGL
Temperature
C / 43°F
Dewpoint
C / 39°F
Humidity
87%
Altimeter
30" Hg
Pressure
1015.92 hPa
Previous

54 mins ago

LTAJ 282150Z 35005KT 9999 -RA BKN012 OVC030 06/04 Q1016 R28/2///78 NOSIG
Observed
Jan-28 @ 21:50 UTC
Wind
  • 350° at 5 KTS
Visibility
10,000+ meters
Flight Rules
MVFR
Conditions
Light Rain
Cloud Levels
  • Broken at 1,200' AGL
  • Overcast at 3,000' AGL
Temperature
C / 43°F
Dewpoint
C / 39°F
Humidity
87%
Altimeter
30" Hg
Pressure
1015.92 hPa
Previous

1 hour ago

LTAJ 282120Z 00000KT 9999 -RA BKN016 BKN080 07/03 Q1017 NOSIG RMK RWY10 00000KT
Observed
Jan-28 @ 21:20 UTC
Visibility
10,000+ meters
Flight Rules
MVFR
Conditions
Light Rain
Cloud Levels
  • Broken at 1,600' AGL
  • Broken at 8,000' AGL
Temperature
C / 45°F
Dewpoint
C / 37°F
Humidity
76%
Altimeter
30.03" Hg
Pressure
1016.92 hPa